Latest Weather Observations for Edithburgh

IDS60801

Issued at 4:01 am CST Friday 28 April 2017 (issued every 30 minutes, with the page automatically refreshed every 10 minutes)

About weather observations | Map of weather stations | Latest weather observations for SA | Other Formats
Station Details ID: 022046 Name: EDITHBURGH Lat: -35.11 Lon: 137.74 Height: 6.0 m
Data from the previous 72 hours. | See also: Recent months at Edithburgh
Date/Time
CST
Temp
°C
App
Temp
°C
Dew
Point
°C
Rel
Hum
%
Delta-T
°C
Wind Press
QNH
hPa
Press
MSL
hPa
Rain since
9am
mm
Dir  Spd
km/h
Gust
km/h
Spd
kts
Gust
kts
28/04:00am 12.7 11.2 11.8 94 0.5 WNW 11 13 6 7 1026.8 1026.7 0.2
28/03:30am 12.8 11.6 11.5 92 0.7 WNW 9 13 5 7 1026.9 1026.8 0.2
28/03:00am 12.9 12.2 11.4 91 0.8 WNW 6 11 3 6 1027.0 1026.9 0.2
28/02:30am 12.7 10.4 11.8 94 0.5 NW 15 17 8 9 1027.0 1026.9 0.2
28/02:00am 12.8 11.3 12.0 95 0.4 WNW 11 15 6 8 1027.1 1027.0 0.2
28/01:30am 13.5 11.5 12.8 95 0.4 WNW 15 19 8 10 1027.3 1027.2 0.2
28/01:00am 12.9 11.3 11.6 92 0.7 WNW 11 15 6 8 1027.5 1027.4 0.2
28/12:30am 12.6 10.9 11.3 92 0.7 WNW 11 13 6 7 1027.5 1027.4 0.2
28/12:00am 12.6 11.0 11.5 93 0.6 WNW 11 13 6 7 1027.6 1027.5 0.2
 
Date/Time
CST
Temp
°C
App
Temp
°C
Dew
Point
°C
Rel
Hum
%
Delta-T
°C
Wind Press
QNH
hPa
Press
MSL
hPa
Rain since
9am
mm
Dir  Spd
km/h
Gust
km/h
Spd
kts
Gust
kts
27/11:30pm 12.1 10.0 11.3 95 0.4 WNW 13 17 7 9 1027.7 1027.6 0.2
27/11:00pm 12.3 9.9 11.3 94 0.5 NW 15 17 8 9 1027.8 1027.7 0.2
27/10:30pm 12.8 10.9 11.7 93 0.6 WNW 13 15 7 8 1027.9 1027.8 0.2
27/10:00pm 12.9 11.8 11.8 93 0.6 NW 9 13 5 7 1027.9 1027.8 0.2
27/09:30pm 12.8 12.1 12.0 95 0.4 NW 7 9 4 5 1027.9 1027.8 0.2
27/09:00pm 12.1 10.8 11.1 94 0.5 NW 9 13 5 7 1027.9 1027.8 0.2
27/08:30pm 12.9 11.8 11.8 93 0.6 NNW 9 11 5 6 1027.9 1027.8 0.2
27/08:00pm 13.2 12.6 12.3 94 0.5 NW 7 11 4 6 1027.9 1027.8 0.2
27/07:30pm 12.5 11.8 11.4 93 0.6 NW 6 7 3 4 1027.6 1027.5 0.0
27/07:00pm 13.7 13.1 12.4 92 0.7 WNW 7 11 4 6 1027.5 1027.4 0.0
27/06:30pm 13.9 12.3 11.6 86 1.2 WNW 11 15 6 8 1027.4 1027.3 0.0
27/06:00pm 14.2 13.0 10.3 77 2.0 WSW 7 9 4 5 1027.3 1027.2 0.0
27/05:30pm 14.1 13.1 11.1 82 1.6 W 7 9 4 5 1027.2 1027.1 0.0
27/05:00pm 14.3 11.2 11.5 83 1.5 WSW 19 28 10 15 1027.1 1027.0 0.0
27/04:30pm 15.4 13.3 11.1 75 2.3 SW 13 32 7 17 1027.1 1027.0 0.0
27/04:00pm 15.1 12.7 11.3 78 2.0 W 15 22 8 12 1027.2 1027.1 0.0
27/03:30pm 16.3 12.5 8.9 61 3.8 WSW 19 26 10 14 1027.0 1026.9 0.0
27/03:00pm 18.1 14.0 7.8 51 5.2 WSW 19 28 10 15 1026.8 1026.7 0.0
27/02:30pm 16.7 13.0 7.9 56 4.4 WSW 17 26 9 14 1026.9 1026.8 0.0
27/02:00pm 17.1 13.1 6.7 50 5.1 SW 17 24 9 13 1026.9 1026.8 0.0
27/01:30pm 17.7 13.4 7.0 49 5.3 SW 19 26 10 14 1026.7 1026.6 0.0
27/01:00pm 17.4 13.4 6.6 49 5.3 SW 17 22 9 12 1027.0 1026.9 0.0
27/12:30pm 16.8 12.5 6.8 51 4.9 SW 19 26 10 14 1027.6 1027.5 0.0
27/12:00pm 16.9 13.0 5.4 46 5.5 SSW 15 22 8 12 1028.0 1027.9 0.0
27/11:30am 17.1 13.7 5.9 47 5.4 SW 13 20 7 11 1028.4 1028.3 0.0
27/11:00am 16.9 13.2 6.4 50 5.1 SW 15 20 8 11 1028.7 1028.6 0.0
27/10:30am 17.4 13.0 6.6 49 5.3 SW 19 24 10 13 1028.9 1028.8 0.0
27/10:00am 16.5 13.0 7.2 54 4.6 SW 15 20 8 11 1029.1 1029.0 0.0
27/09:30am 15.4 11.5 7.2 58 4.0 SW 17 22 9 12 1029.2 1029.1 0.0
27/09:00am 15.2 12.8 7.2 59 3.9 SW 9 19 5 10 1029.1 1029.0 0.0
27/08:30am 14.3 12.0 7.6 64 3.3 WNW 9 11 5 6 1028.6 1028.5 0.0
27/08:00am 15.2 12.7 6.5 56 4.2 W 9 13 5 7 1028.3 1028.2 0.0
27/07:30am 12.8 10.8 6.9 67 2.8 WSW 7 9 4 5 1027.9 1027.8 0.0
27/07:00am 13.1 10.0 7.1 67 2.9 SW 13 19 7 10 1027.7 1027.6 0.0
27/06:30am 13.4 10.0 5.7 59 3.6 SW 13 20 7 11 1027.4 1027.3 0.0
27/06:00am 12.4 9.3 5.5 63 3.2 WSW 11 17 6 9 1027.3 1027.2 0.0
27/05:30am 13.1 10.1 5.8 61 3.4 SW 11 17 6 9 1027.0 1026.9 0.0
27/05:00am 13.5 10.5 5.8 59 3.6 SW 11 15 6 8 1026.7 1026.6 0.0
27/04:30am 13.8 9.7 6.2 60 3.6 SW 17 20 9 11 1026.5 1026.4 0.0
27/04:00am 13.9 10.3 5.1 55 4.1 SSW 13 20 7 11 1026.3 1026.2 0.0
27/03:30am 13.9 10.0 3.4 49 4.7 SSW 13 17 7 9 1026.3 1026.2 0.0
27/03:00am 13.9 9.5 4.5 53 4.3 SW 17 24 9 13 1026.4 1026.3 0.0
27/02:30am 13.9 9.8 4.2 52 4.4 SSW 15 22 8 12 1026.4 1026.3 0.0
27/02:00am 12.8 9.4 4.1 55 3.9 SSW 11 15 6 8 1026.6 1026.5 0.0
27/01:30am 12.9 8.6 3.1 51 4.3 SSW 15 20 8 11 1026.7 1026.6 0.0
27/01:00am 13.3 9.0 1.0 43 5.2 S 13 20 7 11 1026.7 1026.6 0.0
27/12:30am 12.9 8.5 2.9 50 4.4 SSW 15 20 8 11 1026.5 1026.4 0.0
27/12:00am 12.9 8.5 2.9 50 4.4 SSW 15 24 8 13 1026.5 1026.4 0.0
 
Date/Time
CST
Temp
°C
App
Temp
°C
Dew
Point
°C
Rel
Hum
%
Delta-T
°C
Wind Press
QNH
hPa
Press
MSL
hPa
Rain since
9am
mm
Dir  Spd
km/h
Gust
km/h
Spd
kts
Gust
kts
26/11:30pm 13.5 8.4 4.0 52 4.3 SSW 20 26 11 14 1026.4 1026.3 0.0
26/11:00pm 13.6 8.6 4.4 53 4.2 SW 20 26 11 14 1026.3 1026.2 0.0
26/10:30pm 13.6 9.3 5.2 57 3.9 SW 17 24 9 13 1026.4 1026.3 0.0
26/10:00pm 13.7 9.4 5.3 57 3.9 SSW 17 24 9 13 1026.2 1026.1 0.0
26/09:30pm 13.4 8.4 4.7 55 4.0 SSW 20 28 11 15 1026.2 1026.1 0.0
26/09:00pm 13.6 8.7 4.9 55 4.0 SSW 20 26 11 14 1026.0 1025.9 0.0
26/08:30pm 13.6 8.7 4.9 55 4.0 SSW 20 26 11 14 1025.9 1025.8 0.0
26/08:00pm 13.7 8.7 4.8 55 4.1 SSW 20 28 11 15 1025.6 1025.5 0.0
26/07:30pm 13.6 8.4 3.8 51 4.4 SSW 20 30 11 16 1025.4 1025.3 0.0
26/07:00pm 13.7 8.6 4.3 53 4.3 SSW 20 30 11 16 1025.1 1025.0 0.0
26/06:30pm 13.8 8.6 3.5 50 4.6 SSW 20 28 11 15 1024.8 1024.7 0.0
26/06:00pm 13.7 8.6 4.0 52 4.4 SSW 20 28 11 15 1024.4 1024.3 0.0
26/05:30pm 13.8 8.2 3.5 50 4.6 SSW 22 32 12 17 1024.3 1024.2 0.0
26/05:00pm 14.2 9.2 3.5 48 4.8 S 19 28 10 15 1024.0 1023.9 0.0
26/04:30pm 14.2 9.1 3.0 47 5.0 SSW 19 26 10 14 1023.9 1023.8 0.0
26/04:00pm 14.3 8.7 3.7 49 4.8 SSW 22 30 12 16 1024.0 1023.9 0.0
26/03:30pm 14.7 8.7 3.4 46 5.1 SSW 24 33 13 18 1023.8 1023.7 0.0
26/03:00pm 14.5 9.6 4.2 50 4.7 SSW 19 24 10 13 1023.4 1023.3 0.0
26/02:30pm 14.8 8.9 4.1 48 4.9 S 24 32 13 17 1023.2 1023.1 0.0
26/02:00pm 15.4 8.9 2.9 43 5.6 SSW 26 35 14 19 1023.2 1023.1 0.0
26/01:30pm 16.1 9.5 4.3 45 5.5 S 28 41 15 22 1023.2 1023.1 0.0
26/01:00pm 14.9 8.3 4.0 48 5.0 SSW 28 39 15 21 1023.0 1022.9 0.0
26/12:30pm 15.7 9.4 3.7 44 5.5 S 26 33 14 18 1022.9 1022.8 0.0
26/12:00pm 15.9 8.8 3.4 43 5.7 SSW 30 41 16 22 1023.1 1023.0 0.0
26/11:30am 14.6 7.0 2.9 45 5.2 S 32 41 17 22 1023.0 1022.9 0.0
26/11:00am 14.7 8.1 4.2 49 4.8 S 28 37 15 20 1022.9 1022.8 0.0
26/10:30am 15.4 7.9 3.5 45 5.4 SSW 32 39 17 21 1022.6 1022.5 0.0
26/10:00am 14.6 6.3 2.0 42 5.5 SSW 35 44 19 24 1022.4 1022.3 0.0
26/09:30am 14.5 7.0 4.3 50 4.7 SSW 33 43 18 23 1022.0 1021.9 0.0
26/09:00am 13.9 5.8 3.4 49 4.7 SSW 35 48 19 26 1021.8 1021.7 1.0
26/08:30am 12.9 7.2 12.9 100 0.0 SSW 35 50 19 27 1021.4 1021.3 1.0
26/08:23am 13.3 8.2 13.1 99 0.1 SSW 32 50 17 27 1021.4 1021.3 1.0
26/08:00am 12.3 6.4 12.3 100 0.0 SSW 35 44 19 24 1020.9 1020.8 1.0
26/07:30am 12.2 5.5 12.2 100 0.0 SSW 39 50 21 27 1020.2 1020.1 1.0
26/07:00am 11.7 5.1 11.5 99 0.1 SSW 37 48 20 26 1019.7 1019.7 1.0
26/06:30am 12.0 5.2 12.0 100 0.0 SSW 39 52 21 28 1019.2 1019.2 1.0
26/06:00am 11.8 4.6 11.8 100 0.0 SSW 41 54 22 29 1018.8 1018.8 1.0
26/05:30am 12.0 6.0 12.0 100 0.0 SSW 35 50 19 27 1018.3 1018.3 1.0
26/05:00am 12.1 5.3 11.9 99 0.1 SSW 39 56 21 30 1017.7 1017.7 1.0
26/04:39am 11.9 4.7 11.9 100 0.0 SSW 41 59 22 32 1017.5 1017.5 1.0
26/04:30am 11.8 3.6 11.6 99 0.1 SSW 46 57 25 31 1017.4 1017.4 1.0
26/04:00am 11.2 - - - - SSW 43 61 23 33 1017.1 1017.1 1.0
26/03:59am 11.1 - - - - SSW 43 61 23 33 1017.1 1017.1 1.0
26/03:30am 12.2 5.1 12.2 100 0.0 SSW 41 54 22 29 1016.7 1016.7 1.0
26/03:16am 12.5 5.1 12.3 99 0.1 SW 43 65 23 35 1016.3 1016.3 1.0
26/03:00am 12.8 5.5 12.8 100 0.0 SW 43 57 23 31 1016.0 1016.0 1.0
26/02:41am 12.6 6.2 12.0 96 0.3 SW 37 56 20 30 1016.0 1016.0 1.0
26/02:30am 12.6 5.1 12.0 96 0.3 SSW 43 56 23 30 1016.0 1016.0 1.0
26/02:10am 11.5 - - - - SW 44 65 24 35 1015.9 1015.9 1.0
26/02:00am 12.3 4.3 12.3 100 0.0 SSW 46 63 25 34 1015.7 1015.7 1.0
26/01:30am 13.7 6.4 13.5 99 0.1 SW 44 65 24 35 1014.9 1014.9 1.0
26/01:03am 14.0 9.0 14.0 100 0.0 SW 33 52 18 28 1014.6 1014.6 1.0
26/01:00am 14.1 9.1 14.1 100 0.0 SW 33 50 18 27 1014.5 1014.5 1.0
26/12:30am 14.2 8.4 14.0 99 0.1 SW 37 57 20 31 1014.3 1014.3 1.0
26/12:03am 14.1 7.6 13.0 93 0.6 SW 39 57 21 31 1014.1 1014.1 1.0
26/12:00am 14.3 7.4 12.7 90 0.9 SW 41 57 22 31 1014.0 1014.0 1.0
 
Date/Time
CST
Temp
°C
App
Temp
°C
Dew
Point
°C
Rel
Hum
%
Delta-T
°C
Wind Press
QNH
hPa
Press
MSL
hPa
Rain since
9am
mm
Dir  Spd
km/h
Gust
km/h
Spd
kts
Gust
kts
25/11:45pm 14.3 7.8 13.0 92 0.7 SW 39 57 21 31 1013.8 1013.8 1.0
25/11:30pm 14.4 8.5 13.7 96 0.4 SW 37 50 20 27 1013.9 1013.9 1.0
25/11:07pm 14.5 7.3 13.2 92 0.7 SW 43 61 23 33 1013.5 1013.5 1.0
25/11:00pm 14.3 8.0 13.6 96 0.4 SW 39 50 21 27 1013.8 1013.8 1.0
25/10:30pm 14.5 8.0 14.0 97 0.3 SW 41 59 22 32 1013.5 1013.5 1.0
25/10:14pm 14.4 8.6 14.0 97 0.2 SW 37 57 20 31 1013.4 1013.4 1.0
25/10:00pm 14.4 8.8 14.4 100 0.0 SW 37 52 20 28 1013.2 1013.2 1.0
25/09:30pm 14.2 - - - - W 24 32 13 17 1012.8 1012.8 0.8
25/09:00pm 14.4 12.0 14.4 100 0.0 WNW 20 30 11 16 1013.1 1013.1 0.6
25/08:30pm 13.6 12.3 13.6 100 0.0 WNW 13 19 7 10 1013.0 1013.0 0.4
25/08:00pm 14.7 12.4 14.7 100 0.0 WNW 20 26 11 14 1012.8 1012.8 0.4
25/07:30pm 14.9 12.7 14.9 100 0.0 WNW 20 26 11 14 1012.8 1012.8 0.4
25/07:00pm 15.3 13.2 15.3 100 0.0 W 20 28 11 15 1013.0 1013.0 0.4
25/06:30pm 15.4 12.1 14.9 97 0.3 W 26 39 14 21 1012.9 1012.9 0.4
25/06:00pm 15.0 12.9 14.8 99 0.1 W 19 24 10 13 1012.6 1012.6 0.4
25/05:30pm 15.9 13.0 15.0 94 0.5 WSW 24 32 13 17 1012.2 1012.2 0.4
25/05:00pm 16.3 14.3 15.4 94 0.5 W 20 30 11 16 1012.0 1012.0 0.4
25/04:30pm 16.5 14.8 15.8 96 0.4 W 19 30 10 16 1012.1 1012.1 0.4
25/04:00pm 15.9 - - - - W 15 20 8 11 1012.3 1012.3 0.4
25/03:30pm 14.6 - - - - WSW 19 28 10 15 1012.4 1012.4 0.4
25/03:09pm 14.6 - - - - WSW 28 50 15 27 1012.5 1012.5 0.2
25/03:00pm 16.9 15.1 16.9 100 0.0 W 22 33 12 18 1012.3 1012.3 0.2
25/02:30pm 17.4 14.2 17.2 99 0.1 WSW 30 39 16 21 1012.1 1012.1 0.2
25/02:00pm 17.6 14.2 17.6 100 0.0 WSW 32 41 17 22 1012.2 1012.2 0.2
25/01:50pm 17.8 - - - - WSW 28 46 15 25 1012.1 1012.1 0.2
25/01:30pm 19.0 18.5 19.0 100 0.0 WSW 20 28 11 15 1012.4 1012.4 0.2
25/01:00pm 21.4 22.6 21.4 100 0.0 WSW 17 28 9 15 1012.2 1012.2 0.2
25/12:30pm 21.0 22.3 20.8 99 0.1 W 15 24 8 13 1012.7 1012.7 0.2
25/12:00pm 20.5 21.0 20.0 97 0.3 WSW 17 26 9 14 1013.1 1013.1 0.0
25/11:30am 19.8 19.4 18.8 94 0.6 W 19 24 10 13 1013.5 1013.5 0.0
25/11:00am 19.8 19.2 18.4 92 0.9 W 19 26 10 14 1013.8 1013.8 0.0
25/10:30am 19.4 18.8 18.8 96 0.4 WSW 20 30 11 16 1014.1 1014.1 0.0
25/10:00am 18.9 18.2 18.7 99 0.1 WSW 20 30 11 16 1014.2 1014.2 0.0
25/09:30am 18.6 17.4 17.6 94 0.6 WSW 20 30 11 16 1014.2 1014.2 0.0
25/09:00am 18.8 17.6 17.5 92 0.8 WSW 20 32 11 17 1014.2 1014.2 0.2
25/08:30am 17.2 16.2 16.7 97 0.3 WSW 17 24 9 13 1014.1 1014.1 0.2
25/08:00am 17.7 17.6 16.9 95 0.5 WSW 13 20 7 11 1013.9 1013.9 0.2
25/07:30am 16.5 15.7 16.0 97 0.3 WSW 15 22 8 12 1013.6 1013.6 0.2
25/07:00am 16.2 15.5 15.5 96 0.4 WSW 13 22 7 12 1013.2 1013.2 0.2
25/06:30am 16.3 15.8 16.0 98 0.2 WSW 13 19 7 10 1012.8 1012.8 0.2
25/06:00am 16.5 15.1 15.6 94 0.5 WSW 17 26 9 14 1012.6 1012.6 0.2
25/05:30am 16.3 14.8 15.4 94 0.5 WSW 17 24 9 13 1012.3 1012.3 0.2
25/05:00am 16.2 14.3 15.3 94 0.5 WSW 19 26 10 14 1012.2 1012.2 0.2
25/04:30am 15.2 13.7 15.2 100 0.0 WNW 17 24 9 13 1012.1 1012.1 0.2

Other Formats:

Comma delimited format used in spreadsheet applications
http://www.bom.gov.au/fwo/IDS60801/IDS60801.94809.axf

JavaScript Object Notation format (JSON) in row-major order
http://www.bom.gov.au/fwo/IDS60801/IDS60801.94809.json